Time;durP1;ratioP1;P1;durP2;ratioP2;P2;SDS_P1;SDS_P2;PMS_P1;PMS_P2;Temp;Humidity;BMP_temperature;BMP_pressure;BME280_temperature;BME280_humidity;BME280_pressure;Samples;Min_cycle;Max_cycle;Signal;HPM_P1;HPM_P2
2022/04/25 00:01:45;;;;;;;11.68;6.95;;;;;;;12.67;51.74;99122.31;5092297;28;20419;-60
2022/04/25 00:04:12;;;;;;;12.70;7.50;;;;;;;12.63;51.65;99127.81;5092675;28;20051;-59
2022/04/25 00:06:39;;;;;;;11.02;7.80;;;;;;;12.62;51.67;99117.38;5092641;28;20129;-61
2022/04/25 00:09:05;;;;;;;12.88;7.43;;;;;;;12.59;51.73;99126.38;5092217;28;20044;-60
2022/04/25 00:11:32;;;;;;;10.07;7.57;;;;;;;12.58;51.82;99124.69;5092445;28;20044;-59
2022/04/25 00:13:59;;;;;;;12.35;8.02;;;;;;;12.57;51.75;99120.38;5092045;28;20477;-59
2022/04/25 00:16:25;;;;;;;12.27;7.20;;;;;;;12.56;51.81;99120.50;5092094;28;20066;-60
2022/04/25 00:18:52;;;;;;;15.38;7.30;;;;;;;12.54;51.91;99127.66;5092370;28;20044;-59
2022/04/25 00:21:19;;;;;;;12.82;7.65;;;;;;;12.51;52.03;99116.41;5092003;28;20480;-61
2022/04/25 00:23:45;;;;;;;13.18;7.78;;;;;;;12.48;51.93;99116.63;5091988;28;20056;-61
2022/04/25 00:26:12;;;;;;;11.65;7.57;;;;;;;12.45;51.79;99108.94;5092180;28;20137;-61
2022/04/25 00:28:38;;;;;;;11.68;7.28;;;;;;;12.42;51.80;99109.19;5091946;28;20047;-59
2022/04/25 00:31:05;;;;;;;12.90;7.57;;;;;;;12.38;51.68;99111.19;5091142;28;20048;-59
2022/04/25 00:33:31;;;;;;;11.23;7.78;;;;;;;12.34;51.77;99103.63;5091617;28;20052;-60
2022/04/25 00:35:58;;;;;;;11.10;7.80;;;;;;;12.30;51.63;99112.72;5091944;28;20040;-59
2022/04/25 00:38:24;;;;;;;15.98;8.27;;;;;;;12.24;51.76;99106.13;5091781;28;20101;-59
2022/04/25 00:40:51;;;;;;;12.27;7.88;;;;;;;12.18;51.82;99109.22;5091631;28;20067;-61
2022/04/25 00:43:19;;;;;;;12.95;8.00;;;;;;;12.12;52.19;99103.41;5091674;28;20484;-59
2022/04/25 00:45:45;;;;;;;10.48;7.38;;;;;;;12.07;52.24;99100.28;5092144;28;20044;-62
2022/04/25 00:48:12;;;;;;;13.40;8.13;;;;;;;12.04;52.45;99105.75;5091606;28;20083;-59
2022/04/25 00:50:39;;;;;;;11.60;8.55;;;;;;;12.02;52.60;99101.53;5091737;28;20048;-60
2022/04/25 00:53:06;;;;;;;12.07;7.90;;;;;;;12.01;52.76;99098.09;5091667;28;20048;-61
2022/04/25 00:55:33;;;;;;;13.50;8.27;;;;;;;12.00;52.80;99101.66;5090073;28;20109;-59
2022/04/25 00:58:00;;;;;;;14.73;7.85;;;;;;;12.01;52.57;99099.88;5091230;28;20109;-59
2022/04/25 01:00:27;;;;;;;11.55;8.32;;;;;;;12.00;52.83;99096.38;5091485;28;20121;-62
2022/04/25 01:02:54;;;;;;;13.32;8.85;;;;;;;11.98;53.06;99090.38;5091420;28;20097;-62
2022/04/25 01:05:21;;;;;;;12.27;8.23;;;;;;;11.99;53.23;99085.00;5091272;28;20549;-59
2022/04/25 01:07:47;;;;;;;14.15;8.55;;;;;;;11.99;53.30;99082.38;5091403;28;20044;-61
2022/04/25 01:10:14;;;;;;;14.50;9.23;;;;;;;12.02;53.17;99081.28;5091006;28;20484;-59
2022/04/25 01:12:41;;;;;;;11.35;8.38;;;;;;;12.03;53.25;99080.34;5090901;28;20052;-60
2022/04/25 01:15:12;;;;;;;13.85;8.85;;;;;;;12.02;54.02;99081.28;5091370;28;20113;-60
2022/04/25 01:17:40;;;;;;;14.27;8.98;;;;;;;12.03;53.26;99072.41;5089987;28;20056;-59
2022/04/25 01:20:08;;;;;;;15.23;8.55;;;;;;;12.02;53.04;99076.03;5090982;28;20550;-60
2022/04/25 01:22:45;;;;;;;12.73;8.60;;;;;;;11.96;54.08;99076.50;5090891;28;20442;-62
2022/04/25 01:27:57;;;;;;;19.33;9.10;;;;;;;11.91;52.99;99087.38;5091118;28;20044;-61
2022/04/25 01:30:23;;;;;;;15.43;8.10;;;;;;;11.88;53.12;99094.66;5091106;28;20220;-59
2022/04/25 01:32:50;;;;;;;14.23;8.15;;;;;;;11.84;53.20;99094.03;5090942;28;20052;-59
2022/04/25 01:35:16;;;;;;;12.73;8.60;;;;;;;11.81;53.10;99095.09;5090797;28;20044;-62
2022/04/25 01:37:43;;;;;;;13.00;8.77;;;;;;;11.81;53.48;99105.66;5090646;28;20121;-59
2022/04/25 01:40:10;;;;;;;11.40;8.55;;;;;;;11.79;53.64;99109.34;5090555;28;20048;-60
2022/04/25 01:42:37;;;;;;;12.40;7.40;;;;;;;11.79;53.45;99107.56;5090907;28;20048;-61
2022/04/25 01:45:04;;;;;;;16.63;9.00;;;;;;;11.78;53.50;99112.94;5090673;28;20181;-59
2022/04/25 01:47:30;;;;;;;14.32;8.18;;;;;;;11.77;53.45;99113.91;5089580;28;20052;-60
2022/04/25 01:49:57;;;;;;;12.55;8.48;;;;;;;11.75;53.47;99106.09;5090415;28;20052;-62
2022/04/25 01:52:34;;;;;;;13.73;8.95;;;;;;;11.72;54.40;99106.31;5090586;28;20056;-59
2022/04/25 01:55:02;;;;;;;12.55;8.25;;;;;;;11.73;53.46;99097.44;5090630;28;20048;-60
2022/04/25 01:57:29;;;;;;;15.98;8.30;;;;;;;11.71;53.11;99089.66;5090391;28;20044;-61
2022/04/25 01:59:56;;;;;;;15.93;8.82;;;;;;;11.69;53.40;99095.97;5090707;28;20048;-60
2022/04/25 02:02:22;;;;;;;12.57;8.60;;;;;;;11.67;53.31;99092.63;5090574;28;20052;-59
2022/04/25 02:04:50;;;;;;;13.98;8.55;;;;;;;11.65;53.31;99095.38;5090482;28;20051;-60
2022/04/25 02:07:17;;;;;;;14.98;8.93;;;;;;;11.62;53.36;99092.94;5090620;28;20050;-60
2022/04/25 02:09:43;;;;;;;15.55;8.82;;;;;;;11.59;53.32;99091.38;5088974;28;20545;-59
2022/04/25 02:12:10;;;;;;;13.45;8.15;;;;;;;11.55;53.30;99089.91;5090652;28;20048;-59
2022/04/25 02:14:37;;;;;;;12.75;8.05;;;;;;;11.50;53.57;99084.16;5089216;28;20048;-60
2022/04/25 02:17:04;;;;;;;12.98;7.68;;;;;;;11.47;53.69;99094.91;5090401;28;20097;-59
2022/04/25 02:19:35;;;;;;;13.02;8.02;;;;;;;11.45;53.94;99089.72;5090496;28;20055;-59
2022/04/25 02:22:02;;;;;;;13.30;8.15;;;;;;;11.43;53.97;99088.16;5090693;28;20129;-62
2022/04/25 02:24:28;;;;;;;13.07;8.00;;;;;;;11.41;54.24;99090.94;5090618;28;20455;-59
2022/04/25 02:26:55;;;;;;;10.65;7.35;;;;;;;11.41;54.17;99083.03;5090360;28;20487;-59
2022/04/25 02:29:22;;;;;;;13.30;7.82;;;;;;;11.42;54.41;99089.13;5090174;28;20055;-61
2022/04/25 02:31:49;;;;;;;11.77;7.50;;;;;;;11.42;54.35;99083.84;5090245;28;20109;-59
2022/04/25 02:34:16;;;;;;;12.77;8.20;;;;;;;11.44;54.36;99084.59;5090306;28;20051;-61
2022/04/25 02:36:43;;;;;;;12.10;8.10;;;;;;;11.44;54.39;99092.50;5090517;28;20056;-61
2022/04/25 02:39:09;;;;;;;17.08;8.30;;;;;;;11.44;54.42;99095.97;5090109;28;20101;-59
2022/04/25 02:41:36;;;;;;;12.63;8.43;;;;;;;11.46;54.38;99101.13;5090330;28;20048;-60
2022/04/25 02:44:02;;;;;;;16.52;9.23;;;;;;;11.45;54.58;99102.09;5090189;28;20055;-60
2022/04/25 02:46:29;;;;;;;11.60;7.90;;;;;;;11.44;54.54;99103.88;5090245;28;20105;-60
2022/04/25 02:48:56;;;;;;;12.00;8.18;;;;;;;11.44;54.55;99105.69;5090231;28;20431;-58
2022/04/25 02:51:23;;;;;;;12.43;7.93;;;;;;;11.41;54.51;99114.66;5090198;28;20055;-59
2022/04/25 02:53:50;;;;;;;11.45;8.43;;;;;;;11.40;54.59;99115.56;5089925;28;20048;-59
2022/04/25 02:56:16;;;;;;;14.13;8.07;;;;;;;11.38;54.85;99112.22;5094472;28;20431;-61
2022/04/25 02:58:43;;;;;;;16.80;8.65;;;;;;;11.39;54.89;99107.78;5093701;28;20156;-60
2022/04/25 03:01:10;;;;;;;12.15;8.15;;;;;;;11.37;54.72;99104.41;5093519;28;20052;-59
2022/04/25 03:03:37;;;;;;;12.93;8.27;;;;;;;11.38;55.15;99108.72;5093730;28;20518;-59
2022/04/25 03:06:07;;;;;;;14.32;8.77;;;;;;;11.36;55.24;99110.66;5093738;28;20117;-60
2022/04/25 03:08:36;;;;;;;16.50;8.35;;;;;;;11.36;54.94;99102.75;5093706;28;20070;-59
2022/04/25 03:11:05;;;;;;;11.73;8.60;;;;;;;11.33;55.06;99104.63;5092255;28;20442;-59
2022/04/25 03:13:34;;;;;;;13.68;8.50;;;;;;;11.34;54.96;99102.84;5093122;28;20094;-60
2022/04/25 03:16:02;;;;;;;15.38;8.50;;;;;;;11.33;55.05;99095.91;5092378;28;20055;-59
2022/04/25 03:18:30;;;;;;;15.25;9.13;;;;;;;11.31;55.03;99100.41;5093450;28;20222;-59
2022/04/25 03:20:57;;;;;;;15.02;9.80;;;;;;;11.30;54.98;99096.97;5093353;28;20059;-59
2022/04/25 03:23:25;;;;;;;16.70;9.40;;;;;;;11.28;55.14;99090.09;5092249;28;20392;-59
2022/04/25 03:25:52;;;;;;;14.48;9.20;;;;;;;11.26;55.14;99092.84;5091954;28;20501;-60
2022/04/25 03:28:19;;;;;;;14.98;8.52;;;;;;;11.24;55.14;99092.09;5093162;28;20048;-59
2022/04/25 03:30:46;;;;;;;10.93;8.38;;;;;;;11.23;55.36;99102.75;5093209;28;20048;-60
2022/04/25 03:33:13;;;;;;;14.23;8.43;;;;;;;11.20;55.34;99099.41;5093159;28;20052;-59
2022/04/25 03:35:40;;;;;;;14.27;9.38;;;;;;;11.21;55.51;99094.94;5091796;28;20101;-59
2022/04/25 03:38:08;;;;;;;16.83;8.75;;;;;;;11.21;55.51;99093.19;5091932;28;20098;-62
2022/04/25 03:40:35;;;;;;;12.40;8.85;;;;;;;11.20;55.47;99101.19;5092625;28;20492;-60
2022/04/25 03:43:05;;;;;;;13.07;8.70;;;;;;;11.20;55.59;99101.19;5093087;28;20048;-60
2022/04/25 03:45:32;;;;;;;13.73;8.07;;;;;;;11.19;55.50;99107.41;5092915;28;20109;-61
2022/04/25 03:47:59;;;;;;;13.65;8.45;;;;;;;11.16;55.43;99104.97;5093071;28;20485;-60
2022/04/25 03:50:26;;;;;;;15.70;7.97;;;;;;;11.16;55.44;99110.25;5092736;28;20134;-60
2022/04/25 03:52:53;;;;;;;11.85;7.70;;;;;;;11.12;55.65;99103.50;5092379;28;20480;-61
2022/04/25 03:58:05;;;;;;;11.02;8.13;;;;;;;11.06;55.51;99110.91;5092817;28;20104;-59
2022/04/25 04:00:34;;;;;;;9.73;7.43;;;;;;;11.02;55.72;99119.94;5092444;28;20044;-61
2022/04/25 04:03:00;;;;;;;11.40;7.47;;;;;;;11.01;55.73;99112.16;5092886;28;20040;-58
2022/04/25 04:05:27;;;;;;;11.07;7.50;;;;;;;11.00;55.82;99121.00;5091179;28;20056;-60
2022/04/25 04:07:54;;;;;;;13.25;8.32;;;;;;;10.99;56.00;99124.59;5092335;28;20557;-60
2022/04/25 04:10:21;;;;;;;12.98;8.18;;;;;;;10.98;56.07;99134.28;5092149;28;20040;-59
2022/04/25 04:12:48;;;;;;;11.27;8.13;;;;;;;10.99;56.11;99130.69;5090978;28;20044;-61
2022/04/25 04:15:16;;;;;;;14.82;8.63;;;;;;;10.99;56.23;99132.50;5092483;28;20048;-59
2022/04/25 04:17:43;;;;;;;11.02;7.57;;;;;;;10.98;55.94;99131.66;5091017;28;20052;-59
2022/04/25 04:20:12;;;;;;;14.80;8.77;;;;;;;10.96;56.17;99138.81;5090675;28;20040;-61
2022/04/25 04:22:40;;;;;;;12.90;8.15;;;;;;;10.94;55.97;99148.59;5092297;28;20047;-59
2022/04/25 04:25:12;;;;;;;13.90;8.35;;;;;;;10.90;57.11;99147.97;5092184;28;20044;-59
2022/04/25 04:27:41;;;;;;;12.40;8.05;;;;;;;10.90;56.15;99142.72;5090947;28;20048;-60
2022/04/25 04:30:11;;;;;;;11.20;7.45;;;;;;;10.89;56.85;99153.34;5091776;28;20492;-58
2022/04/25 04:32:40;;;;;;;14.02;8.40;;;;;;;10.89;56.23;99153.34;5091843;28;20458;-59
2022/04/25 04:35:09;;;;;;;14.15;8.07;;;;;;;10.88;56.27;99159.56;5092064;28;20059;-62
2022/04/25 04:37:37;;;;;;;12.60;8.30;;;;;;;10.88;56.23;99151.66;5090838;28;20056;-60
2022/04/25 04:42:51;;;;;;;13.43;8.32;;;;;;;10.86;56.17;99159.66;5091666;28;20044;-61
2022/04/25 04:45:17;;;;;;;12.52;7.80;;;;;;;10.85;56.34;99176.41;5092033;28;20101;-59
2022/04/25 04:47:44;;;;;;;14.30;7.93;;;;;;;10.85;56.20;99176.41;5092035;28;20097;-59
2022/04/25 04:50:16;;;;;;;13.57;8.52;;;;;;;10.84;56.57;99179.97;5091819;28;20481;-58
2022/04/25 04:52:44;;;;;;;12.18;7.82;;;;;;;10.84;56.55;99185.25;5091783;28;20522;-59
2022/04/25 04:55:11;;;;;;;13.05;7.88;;;;;;;10.82;56.46;99177.47;5090569;28;20097;-60
2022/04/25 04:57:38;;;;;;;13.07;8.52;;;;;;;10.82;56.64;99182.75;5090560;28;20101;-59
2022/04/25 05:00:07;;;;;;;12.10;7.78;;;;;;;10.82;56.62;99189.78;5091923;28;20052;-60
2022/04/25 05:02:34;;;;;;;12.88;8.18;;;;;;;10.82;56.50;99188.00;5090530;28;20044;-59
2022/04/25 05:05:01;;;;;;;16.52;8.13;;;;;;;10.82;56.60;99197.69;5091569;28;20139;-60
2022/04/25 05:07:27;;;;;;;12.43;8.43;;;;;;;10.81;56.57;99196.81;5091613;28;20048;-60
2022/04/25 05:09:54;;;;;;;13.38;8.07;;;;;;;10.79;56.61;99190.84;5091413;28;20044;-59
2022/04/25 05:12:26;;;;;;;13.57;8.35;;;;;;;10.78;56.56;99196.19;5091850;28;20047;-61
2022/04/25 05:14:54;;;;;;;13.80;7.90;;;;;;;10.77;56.67;99205.88;5091391;28;20394;-59
2022/04/25 05:17:22;;;;;;;12.65;7.88;;;;;;;10.77;56.97;99205.06;5090934;28;20048;-59
2022/04/25 05:19:49;;;;;;;15.30;8.70;;;;;;;10.76;56.79;99198.94;5091155;28;20090;-59
2022/04/25 05:22:16;;;;;;;11.90;8.80;;;;;;;10.77;56.92;99205.88;5091088;28;20048;-62
2022/04/25 05:24:43;;;;;;;15.05;8.70;;;;;;;10.76;56.77;99204.19;5089949;28;20455;-59
2022/04/25 05:27:10;;;;;;;12.43;8.38;;;;;;;10.76;56.90;99214.72;5091429;28;20044;-58
2022/04/25 05:29:37;;;;;;;13.98;7.97;;;;;;;10.75;56.89;99207.78;5091310;28;20055;-62
2022/04/25 05:32:04;;;;;;;16.42;8.30;;;;;;;10.76;56.88;99211.28;5090908;28;20093;-60
2022/04/25 05:34:37;;;;;;;14.85;7.72;;;;;;;10.75;57.02;99205.16;5090990;28;20047;-60
2022/04/25 05:37:04;;;;;;;13.00;8.52;;;;;;;10.76;57.06;99212.09;5090985;28;20077;-60
2022/04/25 05:39:32;;;;;;;11.82;7.78;;;;;;;10.76;57.29;99217.34;5091367;28;20055;-59
2022/04/25 05:42:02;;;;;;;11.85;8.25;;;;;;;10.74;57.12;99210.50;5091193;28;20055;-60
2022/04/25 05:44:29;;;;;;;14.40;8.68;;;;;;;10.74;56.92;99215.78;5091026;28;20044;-60
2022/04/25 05:46:56;;;;;;;14.07;7.85;;;;;;;10.73;57.34;99220.19;5090917;28;20454;-59
2022/04/25 05:52:08;;;;;;;13.25;8.32;;;;;;;10.72;57.31;99215.88;5090745;28;20060;-63
2022/04/25 05:54:36;;;;;;;13.20;8.48;;;;;;;10.73;57.33;99214.91;5090658;28;20492;-60
2022/04/25 05:57:03;;;;;;;13.70;8.52;;;;;;;10.74;57.35;99211.38;5090948;28;20044;-60
2022/04/25 05:59:29;;;;;;;16.13;7.88;;;;;;;10.76;57.13;99220.00;5090581;28;20509;-59
2022/04/25 06:01:57;;;;;;;14.02;8.52;;;;;;;10.78;57.47;99228.66;5090703;28;20075;-59
2022/04/25 06:04:24;;;;;;;14.30;8.07;;;;;;;10.79;57.19;99226.84;5090519;28;20222;-62
2022/04/25 06:06:55;;;;;;;14.00;8.35;;;;;;;10.80;57.33;99229.38;5090242;28;20048;-58
2022/04/25 06:09:25;;;;;;;14.98;8.38;;;;;;;10.82;57.33;99226.63;5090067;28;20048;-59
2022/04/25 06:11:53;;;;;;;12.35;7.72;;;;;;;10.84;57.44;99240.53;5089671;28;20102;-59
2022/04/25 06:14:21;;;;;;;12.35;7.32;;;;;;;10.86;57.29;99235.16;5090612;28;20436;-59
2022/04/25 06:16:48;;;;;;;15.70;8.38;;;;;;;10.87;57.41;99236.88;5090868;28;20052;-58
2022/04/25 06:19:15;;;;;;;12.40;8.00;;;;;;;10.87;57.36;99234.25;5090912;28;20105;-61
2022/04/25 06:21:42;;;;;;;13.02;7.47;;;;;;;10.89;57.37;99249.00;5090697;28;20044;-59
2022/04/25 06:24:09;;;;;;;14.80;7.80;;;;;;;10.89;57.43;99246.38;5090319;28;20047;-59
2022/04/25 06:26:37;;;;;;;12.80;7.70;;;;;;;10.91;57.66;99248.88;5088999;28;20113;-59
2022/04/25 06:29:03;;;;;;;12.73;7.38;;;;;;;10.92;57.44;99254.03;5092077;28;20048;-62
2022/04/25 06:31:30;;;;;;;22.70;7.97;;;;;;;10.93;57.39;99247.84;5093578;28;20052;-61
2022/04/25 06:33:58;;;;;;;13.50;7.50;;;;;;;10.93;57.33;99257.53;5093420;28;20052;-61
2022/04/25 06:36:25;;;;;;;13.77;7.88;;;;;;;10.93;57.50;99252.25;5093884;28;20523;-58
2022/04/25 06:38:52;;;;;;;9.85;6.85;;;;;;;10.94;57.59;99259.19;5094098;28;20056;-60
2022/04/25 06:41:21;;;;;;;11.50;7.68;;;;;;;10.95;57.59;99264.38;5094046;28;20093;-58
2022/04/25 06:43:48;;;;;;;14.68;7.63;;;;;;;10.98;57.63;99265.13;5094038;28;20056;-61
2022/04/25 06:46:14;;;;;;;13.35;7.32;;;;;;;10.99;57.54;99267.63;5094293;28;20060;-59
2022/04/25 06:49:19;;;;;;;11.30;7.38;;;;;;;10.99;57.47;99259.72;5094667;28;20055;-60
2022/04/25 06:51:28;;;;;;;12.13;6.68;;;;;;;11.01;57.41;99263.13;5093683;28;20052;-62
2022/04/25 06:53:54;;;;;;;13.88;8.15;;;;;;;11.01;57.46;99265.75;5093851;28;20609;-58
2022/04/25 06:56:21;;;;;;;16.35;8.07;;;;;;;11.01;57.53;99265.75;5093871;28;20048;-60
2022/04/25 06:58:47;;;;;;;11.77;7.50;;;;;;;11.02;57.80;99275.34;5094006;28;20500;-59
2022/04/25 07:01:15;;;;;;;13.90;7.97;;;;;;;11.04;57.83;99269.97;5093769;28;20059;-60
2022/04/25 07:03:41;;;;;;;12.32;7.85;;;;;;;11.07;57.89;99280.31;5092458;28;20052;-59
2022/04/25 07:06:08;;;;;;;13.82;8.02;;;;;;;11.10;58.04;99279.25;5094092;28;20044;-58
2022/04/25 07:08:35;;;;;;;15.77;8.82;;;;;;;11.13;57.93;99277.25;5093768;28;20052;-60
2022/04/25 07:11:01;;;;;;;15.20;8.48;;;;;;;11.16;58.18;99284.97;5093550;28;20048;-59
2022/04/25 07:13:28;;;;;;;12.25;8.02;;;;;;;11.20;58.20;99285.59;5093739;28;20048;-61
2022/04/25 07:16:00;;;;;;;14.68;9.30;;;;;;;11.24;58.13;99279.16;5093733;28;20481;-58
2022/04/25 07:18:29;;;;;;;14.18;7.97;;;;;;;11.28;57.95;99288.56;5093558;28;20498;-59
2022/04/25 07:20:56;;;;;;;15.25;8.48;;;;;;;11.30;57.48;99289.31;5093619;28;20089;-58
2022/04/25 07:28:53;;;;;;;15.25;7.70;;;;;;;11.37;57.53;99286.25;5093463;28;20549;-59
2022/04/25 07:31:20;;;;;;;18.83;9.38;;;;;;;11.37;57.69;99294.16;5093654;28;20480;-59
2022/04/25 07:33:47;;;;;;;16.88;8.77;;;;;;;11.40;57.76;99296.59;5093228;28;20044;-59
2022/04/25 07:36:15;;;;;;;19.52;8.70;;;;;;;11.39;57.83;99300.13;5092067;28;20557;-59
2022/04/25 07:38:45;;;;;;;14.23;8.77;;;;;;;11.40;57.68;99296.59;5092499;28;20052;-60
2022/04/25 07:41:13;;;;;;;14.18;8.73;;;;;;;11.40;57.72;99301.84;5093107;28;20055;-59
2022/04/25 07:43:43;;;;;;;16.98;8.70;;;;;;;11.40;57.79;99304.50;5093281;28;20047;-58
2022/04/25 07:46:09;;;;;;;17.98;9.02;;;;;;;11.42;57.66;99310.47;5092944;28;20055;-61
2022/04/25 07:48:36;;;;;;;14.88;8.63;;;;;;;11.43;57.50;99312.16;5093076;28;20412;-58
2022/04/25 07:51:02;;;;;;;12.93;8.70;;;;;;;11.43;57.57;99314.81;5093129;28;20052;-58
2022/04/25 07:53:30;;;;;;;15.60;8.43;;;;;;;11.43;57.45;99315.66;5092688;28;20047;-59
2022/04/25 07:55:57;;;;;;;18.83;8.40;;;;;;;11.42;57.46;99318.38;5091375;28;20095;-59
2022/04/25 07:58:24;;;;;;;16.67;8.80;;;;;;;11.39;57.48;99316.81;5091490;28;20048;-59
2022/04/25 08:00:51;;;;;;;20.13;8.95;;;;;;;11.39;57.58;99321.22;5092392;28;20078;-62
2022/04/25 08:03:24;;;;;;;13.80;7.97;;;;;;;11.39;57.38;99321.22;5092953;28;20101;-59
2022/04/25 08:05:51;;;;;;;14.05;8.18;;;;;;;11.38;57.54;99330.09;5092440;28;20056;-62
2022/04/25 08:08:17;;;;;;;15.32;8.52;;;;;;;11.38;57.64;99327.44;5092477;28;20113;-59
2022/04/25 08:10:44;;;;;;;10.98;7.68;;;;;;;11.38;57.65;99330.09;5092462;28;20561;-58
2022/04/25 08:18:42;;;;;;;12.27;7.50;;;;;;;11.44;58.02;99340.22;5092573;28;20044;-60
2022/04/25 08:21:08;;;;;;;12.25;7.90;;;;;;;11.45;58.03;99340.09;5092672;28;20476;-61
2022/04/25 08:23:35;;;;;;;14.90;7.90;;;;;;;11.47;57.85;99338.22;5092694;28;20093;-58
2022/04/25 08:26:02;;;;;;;14.43;7.75;;;;;;;11.48;57.85;99341.72;5092330;28;20109;-61
2022/04/25 08:28:29;;;;;;;14.38;8.60;;;;;;;11.49;57.98;99340.75;5092607;28;20110;-59
2022/04/25 08:31:16;;;;;;;14.38;8.13;;;;;;;11.52;57.96;99339.69;5091358;28;20140;-60
2022/04/25 08:33:46;;;;;;;12.32;7.88;;;;;;;11.53;58.06;99347.50;5091955;28;20056;-61
2022/04/25 08:36:13;;;;;;;13.77;8.02;;;;;;;11.55;58.16;99347.41;5091673;28;20484;-59
2022/04/25 08:38:43;;;;;;;13.80;8.13;;;;;;;11.57;58.30;99346.34;5092223;28;20048;-60
2022/04/25 08:41:11;;;;;;;12.45;7.95;;;;;;;11.60;58.32;99342.66;5091955;28;20055;-59
2022/04/25 08:43:39;;;;;;;11.02;7.53;;;;;;;11.63;58.51;99347.75;5092393;28;20537;-58
2022/04/25 08:46:07;;;;;;;11.38;7.82;;;;;;;11.66;58.34;99351.94;5092022;28;20110;-59
2022/04/25 08:48:35;;;;;;;12.70;7.72;;;;;;;11.69;57.96;99359.63;5091924;28;20499;-59
2022/04/25 08:51:02;;;;;;;12.05;7.97;;;;;;;11.72;58.05;99359.44;5089788;28;20048;-59
2022/04/25 08:53:30;;;;;;;14.13;7.53;;;;;;;11.75;57.95;99364.50;5090288;28;20450;-60
2022/04/25 08:55:59;;;;;;;13.00;8.57;;;;;;;11.76;57.89;99365.31;5091631;28;20047;-59
2022/04/25 08:58:26;;;;;;;12.90;8.13;;;;;;;11.77;57.94;99373.13;5091532;28;20416;-59
2022/04/25 09:00:53;;;;;;;11.38;7.60;;;;;;;11.79;58.00;99379.16;5090165;28;20464;-59
2022/04/25 09:03:19;;;;;;;11.48;7.68;;;;;;;11.81;57.79;99379.06;5091760;28;20093;-59
2022/04/25 09:05:46;;;;;;;12.38;7.72;;;;;;;11.82;57.90;99378.94;5091773;28;20044;-59
2022/04/25 09:08:13;;;;;;;13.38;7.57;;;;;;;11.84;58.21;99389.38;5091446;28;20047;-59
2022/04/25 09:10:42;;;;;;;12.38;8.00;;;;;;;11.88;58.34;99395.31;5091196;28;20051;-59
2022/04/25 09:13:10;;;;;;;15.07;7.35;;;;;;;11.92;58.43;99396.78;5091396;28;20055;-59
2022/04/25 09:15:38;;;;;;;13.45;7.40;;;;;;;11.96;58.21;99393.81;5090037;28;20048;-60
2022/04/25 09:18:04;;;;;;;13.95;8.00;;;;;;;11.99;58.16;99400.69;5091081;28;20501;-60
2022/04/25 09:20:31;;;;;;;13.20;7.93;;;;;;;12.03;57.98;99407.44;5091261;28;20048;-60
2022/04/25 09:22:58;;;;;;;12.77;7.60;;;;;;;12.05;57.92;99405.56;5091218;28;20458;-59
2022/04/25 09:25:26;;;;;;;12.38;7.80;;;;;;;12.08;57.89;99410.63;5091453;28;20044;-59
2022/04/25 09:28:11;;;;;;;13.07;7.75;;;;;;;12.10;57.84;99410.53;5089975;28;20056;-59
2022/04/25 09:30:38;;;;;;;12.55;7.60;;;;;;;12.14;57.79;99408.53;5090653;28;20050;-59
2022/04/25 09:33:21;;;;;;;10.55;7.28;;;;;;;12.10;58.18;99415.78;5091067;28;20218;-60
2022/04/25 09:35:56;;;;;;;11.20;6.97;;;;;;;12.15;58.10;99415.50;5091042;28;20040;-59
2022/04/25 09:38:31;;;;;;;10.77;7.32;;;;;;;12.13;58.10;99415.59;5089701;28;20058;-59
2022/04/25 09:40:58;;;;;;;12.55;7.70;;;;;;;12.16;57.45;99414.53;5090594;28;20048;-60
2022/04/25 09:43:30;;;;;;;14.23;7.93;;;;;;;12.12;58.18;99419.19;5091020;28;20052;-60
2022/04/25 09:46:08;;;;;;;9.90;6.63;;;;;;;12.10;58.12;99416.66;5091368;28;20480;-61
2022/04/25 09:48:37;;;;;;;9.73;7.20;;;;;;;12.12;57.70;99420.00;5090801;28;20048;-59
2022/04/25 09:51:06;;;;;;;11.75;7.90;;;;;;;12.11;57.71;99418.34;5090446;28;20056;-59
2022/04/25 09:53:41;;;;;;;11.18;7.55;;;;;;;12.08;57.94;99420.34;5090549;28;20590;-60
2022/04/25 09:56:13;;;;;;;9.10;7.20;;;;;;;12.09;58.25;99425.53;5090911;28;20101;-60
2022/04/25 09:58:42;;;;;;;13.27;8.07;;;;;;;12.08;57.76;99426.44;5090597;28;20048;-60
2022/04/25 10:01:13;;;;;;;13.27;8.02;;;;;;;12.07;58.00;99427.41;5090570;28;20492;-59
2022/04/25 10:03:41;;;;;;;10.48;7.30;;;;;;;12.08;57.71;99428.25;5090115;28;20080;-59
2022/04/25 10:06:09;;;;;;;9.55;6.93;;;;;;;12.08;57.92;99437.00;5093875;28;20051;-59
2022/04/25 10:08:37;;;;;;;10.45;7.15;;;;;;;12.06;57.57;99436.28;5094766;28;20084;-59
2022/04/25 10:11:09;;;;;;;11.32;7.10;;;;;;;12.04;58.10;99442.56;5093283;28;20043;-62
2022/04/25 10:13:36;;;;;;;11.15;7.22;;;;;;;12.03;57.57;99444.38;5093341;28;20559;-62
2022/04/25 10:16:03;;;;;;;11.15;7.63;;;;;;;12.01;57.64;99441.00;5094571;28;20048;-60
2022/04/25 10:18:31;;;;;;;11.18;7.68;;;;;;;12.01;57.87;99450.69;5094436;28;20047;-60
2022/04/25 10:20:59;;;;;;;12.27;6.50;;;;;;;11.99;57.83;99451.66;5094592;28;20052;-60
2022/04/25 10:23:26;;;;;;;11.32;7.40;;;;;;;11.99;57.90;99456.94;5094607;28;20052;-59
2022/04/25 10:25:54;;;;;;;11.20;6.80;;;;;;;11.98;57.88;99457.88;5094546;28;20044;-61
2022/04/25 10:28:41;;;;;;;11.23;6.95;;;;;;;11.98;57.43;99464.94;5094422;28;20044;-59
2022/04/25 10:31:13;;;;;;;14.60;7.63;;;;;;;11.97;58.15;99465.91;5094178;28;20044;-59
2022/04/25 10:33:50;;;;;;;8.30;6.82;;;;;;;11.93;58.59;99464.41;5093164;28;20148;-60
2022/04/25 10:36:39;;;;;;;10.18;6.78;;;;;;;11.92;58.79;99471.47;5094231;28;20054;-62
2022/04/25 10:39:27;;;;;;;10.77;6.90;;;;;;;11.94;58.72;99469.59;5090900;28;20460;-59
2022/04/25 10:44:43;;;;;;;9.43;6.70;;;;;;;12.00;58.00;99473.56;5094159;28;20075;-61
2022/04/25 10:47:24;;;;;;;11.35;7.15;;;;;;;11.98;58.92;99473.72;5094122;28;20513;-61
2022/04/25 10:49:56;;;;;;;8.93;6.03;;;;;;;12.02;58.77;99476.13;5092684;28;20090;-59
2022/04/25 10:52:37;;;;;;;9.10;6.55;;;;;;;12.02;59.20;99471.69;5094006;28;20055;-59
2022/04/25 10:55:13;;;;;;;9.48;6.72;;;;;;;12.05;58.92;99473.28;5093870;28;20550;-59
2022/04/25 10:58:02;;;;;;;8.38;6.90;;;;;;;12.07;59.21;99484.63;5093956;28;20048;-60
2022/04/25 11:00:38;;;;;;;8.93;6.60;;;;;;;12.11;59.39;99476.38;5093877;28;20055;-60
2022/04/25 11:03:06;;;;;;;9.88;6.90;;;;;;;12.16;58.16;99480.50;5093663;28;20142;-60
2022/04/25 11:05:34;;;;;;;10.63;7.10;;;;;;;12.17;58.37;99482.19;5093988;28;20061;-59
2022/04/25 11:08:16;;;;;;;9.10;6.20;;;;;;;12.16;59.14;99477.84;5093710;28;20085;-59
2022/04/25 11:10:45;;;;;;;8.75;6.90;;;;;;;12.22;58.61;99482.69;5093700;28;20165;-59
2022/04/25 11:13:19;;;;;;;7.22;6.15;;;;;;;12.27;58.24;99490.31;5093683;28;20047;-62
2022/04/25 11:15:51;;;;;;;7.70;6.43;;;;;;;12.29;58.20;99485.78;5092858;28;20044;-59
2022/04/25 11:18:34;;;;;;;9.98;7.18;;;;;;;12.27;58.79;99491.19;5093539;28;20523;-61
2022/04/25 11:21:18;;;;;;;8.45;6.47;;;;;;;12.33;57.88;99495.16;5093326;28;20134;-59
2022/04/25 11:23:52;;;;;;;8.07;6.68;;;;;;;12.33;58.12;99501.31;5092108;28;20112;-59
2022/04/25 11:26:21;;;;;;;7.88;6.57;;;;;;;12.34;58.17;99499.50;5093463;28;20048;-59
2022/04/25 11:29:03;;;;;;;9.13;7.10;;;;;;;12.34;58.54;99502.97;5093052;28;20055;-62
2022/04/25 11:31:31;;;;;;;7.28;6.50;;;;;;;12.38;57.92;99503.63;5093083;28;20496;-59
2022/04/25 11:34:03;;;;;;;10.15;7.32;;;;;;;12.36;58.43;99501.09;5091882;28;20040;-60
2022/04/25 11:36:36;;;;;;;11.23;7.40;;;;;;;12.41;58.17;99507.84;5093284;28;20040;-60
2022/04/25 11:41:48;;;;;;;9.60;7.00;;;;;;;12.47;58.13;99517.97;5093397;28;20449;-62
2022/04/25 11:44:15;;;;;;;8.77;6.82;;;;;;;12.51;58.23;99514.19;5093243;28;20060;-60
2022/04/25 11:46:42;;;;;;;9.70;7.80;;;;;;;12.56;58.52;99511.22;5091830;28;20052;-62
2022/04/25 11:49:09;;;;;;;12.63;7.68;;;;;;;12.60;58.34;99513.53;5091662;28;20059;-61
2022/04/25 11:51:38;;;;;;;8.48;7.55;;;;;;;12.66;58.65;99517.56;5092870;28;20052;-60
2022/04/25 11:54:10;;;;;;;10.77;7.70;;;;;;;12.71;59.41;99517.25;5092606;28;20488;-60
2022/04/25 11:56:39;;;;;;;10.93;7.47;;;;;;;12.79;58.63;99517.56;5092452;28;20551;-60
2022/04/25 11:59:18;;;;;;;9.48;6.93;;;;;;;12.85;58.53;99525.03;5092731;28;20070;-60
2022/04/25 12:01:49;;;;;;;10.55;7.70;;;;;;;12.95;58.31;99522.59;5091408;28;20485;-59